createdAt,value
2018-03-29T00:00:08.135Z,3.54
2018-03-29T00:01:07.891Z,3.45
2018-03-29T00:02:08.157Z,3.47
2018-03-29T00:03:07.910Z,3.57
2018-03-29T00:06:22.871Z,3.62
2018-03-29T00:07:08.233Z,3.62
2018-03-29T00:08:08.244Z,3.61
2018-03-29T00:09:08.017Z,3.58
2018-03-29T00:10:08.016Z,3.6
2018-03-29T00:11:08.026Z,3.62
2018-03-29T00:12:08.044Z,3.6
2018-03-29T00:13:22.972Z,3.55
2018-03-29T00:14:08.072Z,3.58
2018-03-29T00:15:08.090Z,3.61
2018-03-29T00:16:08.360Z,3.61
2018-03-29T00:17:08.111Z,3.61
2018-03-29T00:18:08.387Z,3.69
2018-03-29T00:19:08.142Z,3.65
2018-03-29T00:20:08.418Z,3.66
2018-03-29T00:21:08.172Z,3.66
2018-03-29T00:23:08.199Z,3.6
2018-03-29T00:24:08.474Z,3.57
2018-03-29T00:25:07.969Z,3.68
2018-03-29T00:26:08.504Z,3.73
2018-03-29T00:27:08.518Z,3.68
2018-03-29T00:28:08.531Z,3.6
2018-03-29T00:29:08.553Z,3.61
2018-03-29T00:30:08.563Z,3.62
2018-03-29T00:31:08.322Z,3.61
2018-03-29T00:32:08.591Z,3.58
2018-03-29T00:33:08.609Z,3.75
2018-03-29T00:34:08.364Z,3.7
2018-03-29T00:35:08.635Z,3.7
2018-03-29T00:37:23.320Z,3.73
2018-03-29T00:38:08.678Z,3.8
2018-03-29T00:39:08.694Z,3.72
2018-03-29T00:40:08.706Z,3.78
2018-03-29T00:41:08.733Z,3.65
2018-03-29T00:42:08.733Z,3.7
2018-03-29T00:43:08.748Z,3.65
2018-03-29T00:44:23.420Z,3.72
2018-03-29T00:45:08.783Z,3.73
2018-03-29T00:46:08.537Z,3.73
2018-03-29T00:47:23.304Z,3.68
2018-03-29T00:48:08.826Z,3.75
2018-03-29T00:49:08.843Z,3.75
2018-03-29T00:50:08.851Z,3.75
2018-03-29T00:51:08.866Z,3.73
2018-03-29T00:52:08.879Z,3.73
2018-03-29T00:53:08.895Z,3.72
2018-03-29T00:54:08.911Z,3.73
2018-03-29T00:55:08.932Z,3.78
2018-03-29T00:56:08.936Z,3.72
2018-03-29T00:57:08.961Z,3.75
2018-03-29T00:58:08.965Z,3.73
2018-03-29T00:59:08.983Z,3.73
2018-03-29T01:00:08.741Z,3.73
2018-03-29T01:01:08.754Z,3.76
2018-03-29T01:02:08.768Z,3.75
2018-03-29T01:03:09.039Z,3.72
2018-03-29T01:04:08.794Z,3.73
2018-03-29T01:05:09.066Z,3.83
2018-03-29T01:06:09.086Z,3.66
2018-03-29T01:07:09.097Z,3.72
2018-03-29T01:08:08.852Z,3.78
2018-03-29T01:09:23.782Z,3.7
2018-03-29T01:10:09.141Z,3.72
2018-03-29T01:11:08.899Z,3.72
2018-03-29T01:12:09.177Z,3.7
2018-03-29T01:13:09.188Z,3.78
2018-03-29T01:14:09.198Z,3.76
2018-03-29T01:15:09.215Z,3.84
2018-03-29T01:17:08.982Z,3.86
2018-03-29T01:18:09.003Z,3.78
2018-03-29T01:19:09.062Z,3.73
2018-03-29T01:20:09.287Z,3.83
2018-03-29T01:21:09.306Z,3.72
2018-03-29T01:22:09.324Z,3.83
2018-03-29T01:23:09.076Z,3.84
2018-03-29T01:26:09.115Z,3.8
2018-03-29T01:27:24.050Z,3.84
2018-03-29T01:28:09.144Z,3.86
2018-03-29T01:29:09.175Z,3.86
2018-03-29T01:30:09.176Z,3.9
2018-03-29T01:31:09.459Z,3.83
2018-03-29T01:32:09.204Z,3.7
2018-03-29T01:33:09.526Z,3.83
2018-03-29T01:34:09.234Z,3.83
2018-03-29T01:35:09.253Z,3.8
2018-03-29T01:36:09.259Z,3.86
2018-03-29T01:37:09.537Z,3.76
2018-03-29T01:38:09.548Z,3.9
2018-03-29T01:39:09.570Z,3.84
2018-03-29T01:40:09.321Z,3.93
2018-03-29T01:41:24.249Z,3.88
2018-03-29T01:42:09.606Z,3.9
2018-03-29T01:43:09.617Z,3.88
2018-03-29T01:44:09.377Z,3.98
2018-03-29T01:45:09.130Z,4.06
2018-03-29T01:46:09.406Z,4.08
2018-03-29T01:47:09.163Z,4.05
2018-03-29T01:48:09.432Z,4.02
2018-03-29T01:49:09.707Z,3.98
2018-03-29T01:50:09.203Z,3.94
2018-03-29T01:51:09.745Z,4.05
2018-03-29T01:52:24.151Z,3.97
2018-03-29T01:53:09.508Z,4.04
2018-03-29T01:54:09.522Z,3.96
2018-03-29T01:56:09.550Z,4.06
2018-03-29T01:57:24.481Z,4.08
2018-03-29T01:59:09.857Z,4.18
2018-03-29T02:01:24.543Z,4.02
2018-03-29T02:02:09.899Z,4.02
2018-03-29T02:03:09.914Z,4.08
2018-03-29T02:04:24.585Z,4.12
2018-03-29T02:05:09.682Z,4.16
2018-03-29T02:06:09.969Z,4.09
2018-03-29T02:07:09.969Z,4.2
2018-03-29T02:08:09.994Z,4.2
2018-03-29T02:09:10.005Z,4.22
2018-03-29T02:10:24.682Z,4.11
2018-03-29T02:11:10.033Z,4.22
2018-03-29T02:12:24.444Z,4.09
2018-03-29T02:13:10.059Z,4.18
2018-03-29T02:15:10.094Z,4.18
2018-03-29T02:16:09.848Z,4.27
2018-03-29T02:17:10.126Z,4.3
2018-03-29T02:18:09.875Z,4.37
2018-03-29T02:19:09.888Z,4.26
2018-03-29T02:21:10.182Z,4.22
2018-03-29T02:22:24.590Z,4.33
2018-03-29T02:23:09.949Z,4.27
2018-03-29T02:24:10.222Z,4.24
2018-03-29T02:25:10.242Z,4.22
2018-03-29T02:26:10.252Z,4.26
2018-03-29T02:27:10.087Z,4.26
2018-03-29T02:28:10.288Z,4.2
2018-03-29T02:29:10.037Z,4.24
2018-03-29T02:30:09.794Z,4.24
2018-03-29T02:31:10.329Z,4.22
2018-03-29T02:32:10.347Z,4.29
2018-03-29T02:33:10.362Z,4.32
2018-03-29T02:34:10.115Z,4.34
2018-03-29T02:35:10.397Z,4.34
2018-03-29T02:36:10.404Z,4.36
2018-03-29T02:37:10.424Z,4.36
2018-03-29T02:38:24.834Z,4.32
2018-03-29T02:39:10.447Z,4.37
2018-03-29T02:40:10.204Z,4.3
2018-03-29T02:42:10.535Z,4.33
2018-03-29T02:43:10.508Z,4.45
2018-03-29T02:44:25.177Z,4.52
2018-03-29T02:45:10.545Z,4.52
2018-03-29T02:46:25.213Z,4.55
2018-03-29T02:47:10.567Z,4.51
2018-03-29T02:48:10.588Z,4.55
2018-03-29T02:49:10.335Z,4.67
2018-03-29T02:50:10.354Z,4.63
2018-03-29T02:53:10.674Z,4.6
2018-03-29T02:54:10.426Z,4.69
2018-03-29T02:55:10.694Z,4.69
2018-03-29T02:56:10.475Z,4.73
2018-03-29T02:57:10.463Z,4.66
2018-03-29T02:58:10.503Z,4.65
2018-03-29T02:59:10.757Z,4.67
2018-03-29T03:00:25.418Z,4.72
2018-03-29T03:01:10.784Z,4.66
2018-03-29T03:02:10.807Z,4.7
2018-03-29T03:03:10.551Z,4.65
2018-03-29T03:04:10.307Z,4.67
2018-03-29T03:05:10.835Z,4.7
2018-03-29T03:07:10.880Z,4.67
2018-03-29T03:08:10.624Z,4.85
2018-03-29T03:09:10.638Z,4.75
2018-03-29T03:10:11.023Z,4.78
2018-03-29T03:11:10.938Z,4.89
2018-03-29T03:12:10.683Z,4.73
2018-03-29T03:13:10.955Z,4.73
2018-03-29T03:14:10.721Z,4.88
2018-03-29T03:15:10.470Z,4.92
2018-03-29T03:17:10.760Z,4.96
2018-03-29T03:18:10.775Z,4.96
2018-03-29T03:19:10.791Z,5.06
2018-03-29T03:20:11.067Z,5
2018-03-29T03:21:11.079Z,5.1
2018-03-29T03:22:11.097Z,5.03
2018-03-29T03:23:10.852Z,5.06
2018-03-29T03:24:10.868Z,4.94
2018-03-29T03:26:11.169Z,5.04
2018-03-29T03:28:10.931Z,5.07
2018-03-29T03:29:10.943Z,5.04
2018-03-29T03:30:11.226Z,5.13
2018-03-29T03:31:11.243Z,5.18
2018-03-29T03:32:25.910Z,5.21
2018-03-29T03:33:11.265Z,5.22
2018-03-29T03:34:11.281Z,5.22
2018-03-29T03:35:11.295Z,5.2
2018-03-29T03:36:11.311Z,5.27
2018-03-29T03:37:11.481Z,5.3
2018-03-29T03:38:11.081Z,5.36
2018-03-29T03:39:11.360Z,5.33
2018-03-29T03:40:11.375Z,5.38
2018-03-29T03:41:11.389Z,5.4
2018-03-29T03:42:11.408Z,5.36
2018-03-29T03:43:11.160Z,5.28
2018-03-29T03:44:11.439Z,5.33
2018-03-29T03:45:11.451Z,5.42
2018-03-29T03:46:11.468Z,5.36
2018-03-29T03:47:26.139Z,5.46
2018-03-29T03:48:11.501Z,5.46
2018-03-29T03:49:11.513Z,5.43
2018-03-29T03:50:11.529Z,5.42
2018-03-29T03:51:11.285Z,5.39
2018-03-29T03:52:11.560Z,5.48
2018-03-29T03:53:26.237Z,5.45
2018-03-29T03:54:26.252Z,5.51
2018-03-29T03:55:11.348Z,5.57
2018-03-29T03:56:11.621Z,5.56
2018-03-29T03:57:11.642Z,5.63
2018-03-29T03:58:11.396Z,5.65
2018-03-29T03:59:11.421Z,5.64
2018-03-29T04:01:26.366Z,5.68
2018-03-29T04:02:11.456Z,5.76
2018-03-29T04:03:11.736Z,5.71
2018-03-29T04:04:11.748Z,5.72
2018-03-29T04:05:11.764Z,5.75
2018-03-29T04:06:11.789Z,5.75
2018-03-29T04:07:11.793Z,5.75
2018-03-29T04:08:11.824Z,5.71
2018-03-29T04:09:11.572Z,5.76
2018-03-29T04:10:11.842Z,5.76
2018-03-29T04:11:11.861Z,5.76
2018-03-29T04:12:11.878Z,5.68
2018-03-29T04:13:11.888Z,5.71
2018-03-29T04:14:12.007Z,5.79
2018-03-29T04:15:11.920Z,5.74
2018-03-29T04:16:11.676Z,5.71
2018-03-29T04:17:11.951Z,5.68
2018-03-29T04:19:26.648Z,5.67
2018-03-29T04:20:12.009Z,5.78
2018-03-29T04:21:12.016Z,5.65
2018-03-29T04:22:12.036Z,5.68
2018-03-29T04:23:12.052Z,5.72
2018-03-29T04:24:12.068Z,5.71
2018-03-29T04:25:11.819Z,5.78
2018-03-29T04:26:26.750Z,5.68
2018-03-29T04:27:12.118Z,5.68
2018-03-29T04:28:12.127Z,5.65
2018-03-29T04:29:12.139Z,5.68
2018-03-29T04:31:12.175Z,5.68
2018-03-29T04:32:12.187Z,5.61
2018-03-29T04:33:11.948Z,5.65
2018-03-29T04:34:12.218Z,5.58
2018-03-29T04:35:26.633Z,5.54
2018-03-29T04:36:12.251Z,5.6
2018-03-29T04:37:12.266Z,5.56
2018-03-29T04:38:12.285Z,5.45
2018-03-29T04:39:12.297Z,5.49
2018-03-29T04:40:12.319Z,5.46
2018-03-29T04:41:12.071Z,5.49
2018-03-29T04:42:11.826Z,5.57
2018-03-29T04:43:12.361Z,5.48
2018-03-29T04:44:12.378Z,5.45
2018-03-29T04:45:26.792Z,5.46
2018-03-29T04:46:12.407Z,5.45
2018-03-29T04:47:12.427Z,5.61
2018-03-29T04:48:12.441Z,5.48
2018-03-29T04:49:12.510Z,5.53
2018-03-29T04:50:12.211Z,5.53
2018-03-29T04:52:11.984Z,5.46
2018-03-29T04:53:12.519Z,5.49
2018-03-29T04:54:12.532Z,5.49
2018-03-29T04:55:12.547Z,5.43
2018-03-29T04:56:12.566Z,5.42
2018-03-29T04:57:12.321Z,5.51
2018-03-29T04:58:27.254Z,5.46
2018-03-29T04:59:12.354Z,5.45
2018-03-29T05:00:12.367Z,5.49
2018-03-29T05:01:12.642Z,5.48
2018-03-29T05:02:12.401Z,5.46
2018-03-29T05:03:12.421Z,5.45
2018-03-29T05:04:12.695Z,5.54
2018-03-29T05:05:12.713Z,5.38
2018-03-29T05:06:12.722Z,5.45
2018-03-29T05:07:27.399Z,5.43
2018-03-29T05:08:12.498Z,5.43
2018-03-29T05:09:12.771Z,5.39
2018-03-29T05:10:12.527Z,5.42
2018-03-29T05:11:12.804Z,5.46
2018-03-29T05:12:27.479Z,5.51
2018-03-29T05:13:12.845Z,5.45
2018-03-29T05:14:12.851Z,5.4
2018-03-29T05:15:12.863Z,5.48
2018-03-29T05:16:12.620Z,5.54
2018-03-29T05:18:12.921Z,5.43
2018-03-29T05:19:12.934Z,5.54
2018-03-29T05:20:12.684Z,5.49
2018-03-29T05:21:12.959Z,5.42
2018-03-29T05:22:27.641Z,5.4
2018-03-29T05:23:12.992Z,5.4
2018-03-29T05:24:13.005Z,5.42
2018-03-29T05:25:13.023Z,5.36
2018-03-29T05:26:13.038Z,5.39
2018-03-29T05:27:12.798Z,5.4
2018-03-29T05:28:27.728Z,5.38
2018-03-29T05:29:27.743Z,5.39
2018-03-29T05:30:13.101Z,5.42
2018-03-29T05:31:12.863Z,5.45
2018-03-29T05:32:13.134Z,5.46
2018-03-29T05:33:13.150Z,5.4
2018-03-29T05:36:13.198Z,5.46
2018-03-29T05:37:13.214Z,5.49
2018-03-29T05:38:13.230Z,5.49
2018-03-29T05:39:13.394Z,5.45
2018-03-29T05:40:13.344Z,5.49
2018-03-29T05:41:13.275Z,5.53
2018-03-29T05:43:13.312Z,5.4
2018-03-29T05:44:13.328Z,5.4
2018-03-29T05:45:13.382Z,5.43
2018-03-29T05:46:13.356Z,5.4
2018-03-29T05:48:13.387Z,5.45
2018-03-29T05:49:13.147Z,5.42
2018-03-29T05:50:13.419Z,5.42
2018-03-29T05:51:13.439Z,5.42
2018-03-29T05:53:13.474Z,5.36
2018-03-29T05:54:28.139Z,5.4
2018-03-29T05:55:13.498Z,5.42
2018-03-29T05:56:13.515Z,5.56
2018-03-29T05:57:13.009Z,5.4
2018-03-29T05:58:13.544Z,5.39
2018-03-29T05:59:13.304Z,5.36
2018-03-29T06:00:13.576Z,5.35
2018-03-29T06:01:13.337Z,5.33
2018-03-29T06:02:13.609Z,5.36
2018-03-29T06:03:13.491Z,5.39
2018-03-29T06:04:13.379Z,5.39
2018-03-29T06:05:13.135Z,5.4
2018-03-29T06:06:13.671Z,5.27
2018-03-29T06:08:13.706Z,5.35
2018-03-29T06:09:13.721Z,5.33
2018-03-29T06:11:13.762Z,5.28
2018-03-29T06:13:13.784Z,5.33
2018-03-29T06:14:13.538Z,5.35
2018-03-29T06:15:13.817Z,5.39
2018-03-29T06:16:13.831Z,5.42
2018-03-29T06:17:28.504Z,5.46
2018-03-29T06:18:13.607Z,5.45
2018-03-29T06:19:13.927Z,5.49
2018-03-29T06:20:13.642Z,5.43
2018-03-29T06:21:13.909Z,5.42
2018-03-29T06:22:13.927Z,5.38
2018-03-29T06:23:13.761Z,5.38
2018-03-29T06:24:13.699Z,5.43
2018-03-29T06:25:13.976Z,5.38
2018-03-29T06:26:28.698Z,5.36
2018-03-29T06:27:13.748Z,5.43
2018-03-29T06:28:14.024Z,5.49
2018-03-29T06:29:14.038Z,5.39
2018-03-29T06:30:14.189Z,5.4
2018-03-29T06:31:14.069Z,5.4
2018-03-29T06:32:13.840Z,5.51
2018-03-29T06:33:13.845Z,5.53
2018-03-29T06:34:14.119Z,5.4
2018-03-29T06:35:14.133Z,5.51
2018-03-29T06:36:28.547Z,5.48
2018-03-29T06:37:14.169Z,5.48
2018-03-29T06:38:14.188Z,5.56
2018-03-29T06:39:14.196Z,5.57
2018-03-29T06:40:14.215Z,5.63
2018-03-29T06:41:13.968Z,5.53
2018-03-29T06:42:28.901Z,5.53
2018-03-29T06:43:14.004Z,5.49
2018-03-29T06:44:14.288Z,5.53
2018-03-29T06:45:14.302Z,5.45
2018-03-29T06:47:14.324Z,5.57
2018-03-29T06:48:14.340Z,5.65
2018-03-29T06:49:14.362Z,5.63
2018-03-29T06:50:14.474Z,5.54
2018-03-29T06:51:14.390Z,5.63
2018-03-29T06:52:14.405Z,5.61
2018-03-29T06:53:14.422Z,5.65
2018-03-29T06:54:14.437Z,5.67
2018-03-29T06:55:14.455Z,5.64
2018-03-29T06:56:14.210Z,5.61
2018-03-29T06:57:29.245Z,5.6
2018-03-29T06:58:14.561Z,5.48
2018-03-29T06:59:14.547Z,5.49
2018-03-29T07:00:14.305Z,5.61
2018-03-29T07:01:14.701Z,5.65
2018-03-29T07:02:14.280Z,5.61
2018-03-29T07:03:29.241Z,5.67
2018-03-29T07:04:29.257Z,5.64
2018-03-29T07:05:14.620Z,5.6
2018-03-29T07:07:14.647Z,5.71
2018-03-29T07:08:14.671Z,5.72
2018-03-29T07:09:14.427Z,5.68
2018-03-29T07:10:14.705Z,5.67
2018-03-29T07:11:14.721Z,5.76
2018-03-29T07:12:14.740Z,5.63
2018-03-29T07:13:14.754Z,5.64
2018-03-29T07:14:14.242Z,5.78
2018-03-29T07:15:14.787Z,5.64
2018-03-29T07:16:14.794Z,5.65
2018-03-29T07:17:14.550Z,5.68
2018-03-29T07:18:14.826Z,5.61
2018-03-29T07:19:14.845Z,5.64
2018-03-29T07:20:14.862Z,5.64
2018-03-29T07:21:29.531Z,5.65
2018-03-29T07:23:14.652Z,5.68
2018-03-29T07:24:14.927Z,5.65
2018-03-29T07:25:14.680Z,5.79
2018-03-29T07:26:14.695Z,5.83
2018-03-29T07:27:14.973Z,5.81
2018-03-29T07:28:14.992Z,5.81
2018-03-29T07:30:15.021Z,5.89
2018-03-29T07:31:14.777Z,5.96
2018-03-29T07:32:14.793Z,5.85
2018-03-29T07:33:15.072Z,5.94
2018-03-29T07:34:15.085Z,5.99
2018-03-29T07:35:14.842Z,6.04
2018-03-29T07:36:29.856Z,5.99
2018-03-29T07:37:15.136Z,6
2018-03-29T07:38:15.150Z,5.94
2018-03-29T07:39:14.910Z,5.97
2018-03-29T07:40:15.185Z,5.91
2018-03-29T07:41:15.199Z,6
2018-03-29T07:42:14.961Z,5.97
2018-03-29T07:43:15.242Z,6.06
2018-03-29T07:44:15.066Z,6.01
2018-03-29T07:45:29.922Z,6.18
2018-03-29T07:46:15.042Z,6.01
2018-03-29T07:47:15.412Z,6.04
2018-03-29T07:48:15.319Z,6.01
2018-03-29T07:49:15.331Z,6.04
2018-03-29T07:50:15.349Z,6.14
2018-03-29T07:51:15.105Z,6.06
2018-03-29T07:52:30.038Z,6.14
2018-03-29T07:53:15.463Z,6.09
2018-03-29T07:54:15.152Z,6.06
2018-03-29T07:55:15.430Z,6.17
2018-03-29T07:56:14.927Z,6.15
2018-03-29T07:57:15.211Z,6.09
2018-03-29T07:58:15.220Z,6.17
2018-03-29T07:59:15.503Z,6.22
2018-03-29T08:00:15.513Z,6.18
2018-03-29T08:01:30.186Z,6.19
2018-03-29T08:02:15.546Z,6.33
2018-03-29T08:03:15.585Z,6.25
2018-03-29T08:04:15.585Z,6.28
2018-03-29T08:05:15.596Z,6.34
2018-03-29T08:06:15.767Z,6.34
2018-03-29T08:07:15.637Z,6.34
2018-03-29T08:08:30.316Z,6.34
2018-03-29T08:09:15.662Z,6.3
2018-03-29T08:10:15.678Z,6.28
2018-03-29T08:11:15.695Z,6.34
2018-03-29T08:12:15.713Z,6.34
2018-03-29T08:13:15.467Z,6.41
2018-03-29T08:14:15.490Z,6.3
2018-03-29T08:15:15.506Z,6.33
2018-03-29T08:18:15.813Z,6.36
2018-03-29T08:19:15.582Z,6.33
2018-03-29T08:20:15.842Z,6.33
2018-03-29T08:21:15.865Z,6.41
2018-03-29T08:22:15.624Z,6.36
2018-03-29T08:23:15.634Z,6.31
2018-03-29T08:24:30.568Z,6.31
2018-03-29T08:26:15.428Z,6.31
2018-03-29T08:27:15.959Z,6.36
2018-03-29T08:28:15.976Z,6.4
2018-03-29T08:29:16.000Z,6.43
2018-03-29T08:30:16.018Z,6.41
2018-03-29T08:31:15.510Z,6.49
2018-03-29T08:32:30.703Z,6.54
2018-03-29T08:33:16.117Z,6.58
2018-03-29T08:34:16.082Z,6.54
2018-03-29T08:36:16.115Z,6.58
2018-03-29T08:37:16.129Z,6.58
2018-03-29T08:38:16.149Z,6.66
2018-03-29T08:39:30.821Z,6.48
2018-03-29T08:40:15.920Z,6.46
2018-03-29T08:41:16.197Z,6.54
2018-03-29T08:42:16.222Z,6.56
2018-03-29T08:43:16.230Z,6.59
2018-03-29T08:44:16.247Z,6.69
2018-03-29T08:45:16.269Z,6.74
2018-03-29T08:46:16.288Z,6.69
2018-03-29T08:47:16.040Z,6.77
2018-03-29T08:48:16.321Z,6.85
2018-03-29T08:49:16.343Z,7.05
2018-03-29T08:50:15.829Z,7.15
2018-03-29T08:51:16.370Z,7.25
2018-03-29T08:52:16.393Z,7.34
2018-03-29T08:53:16.401Z,7.45
2018-03-29T08:54:16.422Z,7.48
2018-03-29T08:55:15.915Z,7.49
2018-03-29T08:56:16.191Z,7.37
2018-03-29T08:57:16.208Z,7.3
2018-03-29T08:58:16.484Z,7.24
2018-03-29T08:59:16.246Z,7.24
2018-03-29T09:00:16.521Z,7.42
2018-03-29T09:02:16.037Z,7.34
2018-03-29T09:03:16.574Z,7.27
2018-03-29T09:05:16.605Z,7.27
2018-03-29T09:06:16.367Z,7.35
2018-03-29T09:07:16.127Z,7.48
2018-03-29T09:08:16.401Z,7.48
2018-03-29T09:09:16.682Z,7.57
2018-03-29T09:10:16.700Z,7.63
2018-03-29T09:11:16.713Z,7.57
2018-03-29T09:13:16.773Z,7.67
2018-03-29T09:14:16.765Z,7.93
2018-03-29T09:15:16.523Z,7.93
2018-03-29T09:16:16.803Z,8.08
2018-03-29T09:17:16.820Z,8.38
2018-03-29T09:18:16.864Z,8.4
2018-03-29T09:19:16.857Z,8.48
2018-03-29T09:20:31.542Z,8.68
2018-03-29T09:21:16.898Z,8.84
2018-03-29T09:22:16.965Z,8.74
2018-03-29T09:23:16.927Z,8.79
2018-03-29T09:24:16.951Z,8.87
2018-03-29T09:25:16.969Z,8.96
2018-03-29T09:26:16.983Z,9.11
2018-03-29T09:27:17.153Z,8.94
2018-03-29T09:28:17.030Z,8.89
2018-03-29T09:29:31.698Z,8.91
2018-03-29T09:30:16.806Z,8.87
2018-03-29T09:31:16.827Z,8.79
2018-03-29T09:32:31.765Z,8.66
2018-03-29T09:33:17.123Z,8.5
2018-03-29T09:34:17.146Z,8.44
2018-03-29T09:35:17.156Z,8.63
2018-03-29T09:37:16.938Z,8.87
2018-03-29T09:38:17.213Z,9.21
2018-03-29T09:39:17.233Z,9.32
2018-03-29T09:40:17.257Z,9.47
2018-03-29T09:41:17.274Z,9.69
2018-03-29T09:42:17.030Z,9.93
2018-03-29T09:43:17.316Z,10.01
2018-03-29T09:44:17.075Z,10.25
2018-03-29T09:45:17.348Z,10.59
2018-03-29T09:46:17.372Z,10.64
2018-03-29T09:48:17.151Z,10.89
2018-03-29T09:50:17.203Z,11.62
2018-03-29T09:51:17.474Z,12.01
2018-03-29T09:52:32.150Z,12.05
2018-03-29T09:53:17.517Z,12.04
2018-03-29T09:54:17.537Z,11.95
2018-03-29T09:55:17.563Z,11.55
2018-03-29T09:56:17.321Z,11.24
2018-03-29T09:57:17.600Z,11.28
2018-03-29T09:58:17.369Z,11.29
2018-03-29T09:59:17.650Z,10.91
2018-03-29T10:00:17.409Z,10.76
2018-03-29T10:01:17.435Z,10.44
2018-03-29T10:02:17.452Z,10.23
2018-03-29T10:03:17.212Z,10.38
2018-03-29T10:04:17.501Z,10.26
2018-03-29T10:05:17.565Z,10.42
2018-03-29T10:06:17.537Z,10.48
2018-03-29T10:07:32.484Z,10.64
2018-03-29T10:08:17.592Z,10.64
2018-03-29T10:09:17.602Z,10.26
2018-03-29T10:10:17.672Z,10.15
2018-03-29T10:11:17.643Z,10.07
2018-03-29T10:12:18.166Z,10.17
2018-03-29T10:13:17.945Z,10.32
2018-03-29T10:14:17.970Z,10.63
2018-03-29T10:15:17.991Z,10.7
2018-03-29T10:16:17.751Z,10.88
2018-03-29T10:17:17.770Z,10.88
2018-03-29T10:18:17.533Z,10.88
2018-03-29T10:19:18.076Z,10.89
2018-03-29T10:20:18.092Z,10.96
2018-03-29T10:21:18.114Z,10.84
2018-03-29T10:22:18.139Z,10.71
2018-03-29T10:23:17.896Z,10.64
2018-03-29T10:24:18.186Z,10.63
2018-03-29T10:25:17.947Z,10.36
2018-03-29T10:26:18.221Z,10.33
2018-03-29T10:27:18.243Z,10.2
2018-03-29T10:28:18.002Z,10.08
2018-03-29T10:29:18.281Z,9.72
2018-03-29T10:30:18.392Z,9.68
2018-03-29T10:31:32.982Z,9.72
2018-03-29T10:32:18.085Z,9.71
2018-03-29T10:33:18.365Z,9.86
2018-03-29T10:34:18.129Z,9.91
2018-03-29T10:35:18.145Z,9.96
2018-03-29T10:36:18.172Z,10.01
2018-03-29T10:37:18.451Z,10.09
2018-03-29T10:38:18.469Z,10.01
2018-03-29T10:39:33.252Z,10.02
2018-03-29T10:40:18.248Z,10.01
2018-03-29T10:41:18.528Z,10.09
2018-03-29T10:42:18.549Z,9.99
2018-03-29T10:43:18.309Z,9.9
2018-03-29T10:44:18.328Z,9.84
2018-03-29T10:45:18.139Z,9.93
2018-03-29T10:46:33.288Z,9.93
2018-03-29T10:47:18.388Z,9.91
2018-03-29T10:48:18.150Z,9.9
2018-03-29T10:49:18.694Z,9.96
2018-03-29T10:50:18.709Z,9.74
2018-03-29T10:51:18.485Z,9.9
2018-03-29T10:52:18.498Z,9.86
2018-03-29T10:53:18.768Z,9.83
2018-03-29T10:54:18.532Z,9.81
2018-03-29T10:55:33.470Z,9.83
2018-03-29T10:58:18.869Z,9.58
2018-03-29T10:59:18.893Z,9.47
2018-03-29T11:00:18.912Z,9.4
2018-03-29T11:01:18.928Z,9.24
2018-03-29T11:02:18.947Z,9.08
2018-03-29T11:03:19.109Z,9.11
2018-03-29T11:04:18.733Z,9.11
2018-03-29T11:06:19.027Z,9.13
2018-03-29T11:07:19.051Z,9.02
2018-03-29T11:08:18.807Z,9.04
2018-03-29T11:10:19.161Z,9.05
2018-03-29T11:12:19.158Z,8.95
2018-03-29T11:13:19.168Z,9.01
2018-03-29T11:14:18.665Z,9.04
2018-03-29T11:15:19.211Z,9.18
2018-03-29T11:16:19.220Z,9.2
2018-03-29T11:17:18.983Z,9.26
2018-03-29T11:18:18.741Z,9.28
2018-03-29T11:19:19.278Z,9.35
2018-03-29T11:21:19.315Z,9.35
2018-03-29T11:23:19.094Z,9.18
2018-03-29T11:24:19.115Z,8.99
2018-03-29T11:25:19.397Z,8.83
2018-03-29T11:26:19.414Z,8.94
2018-03-29T11:27:33.831Z,8.98
2018-03-29T11:28:19.448Z,8.96
2018-03-29T11:29:18.951Z,9.02
2018-03-29T11:30:19.487Z,9.04
2018-03-29T11:31:19.508Z,9.18
2018-03-29T11:32:19.531Z,9.23
2018-03-29T11:33:19.285Z,9.21
2018-03-29T11:34:19.573Z,9.28
2018-03-29T11:35:19.588Z,9.32
2018-03-29T11:36:19.604Z,9.28
2018-03-29T11:37:19.630Z,9.24
2018-03-29T11:38:19.382Z,9.08
2018-03-29T11:39:19.665Z,9.04
2018-03-29T11:40:19.681Z,8.99
2018-03-29T11:41:19.440Z,8.81
2018-03-29T11:42:34.380Z,8.8
2018-03-29T11:44:19.755Z,8.91
2018-03-29T11:45:19.788Z,8.95
2018-03-29T11:46:19.537Z,8.91
2018-03-29T11:47:19.816Z,8.96
2018-03-29T11:48:34.489Z,8.94
2018-03-29T11:49:19.848Z,8.99
2018-03-29T11:50:19.918Z,9.1
2018-03-29T11:51:19.895Z,8.94
2018-03-29T11:52:19.917Z,9.1
2018-03-29T11:53:19.924Z,9.17
2018-03-29T11:54:19.943Z,9.18
2018-03-29T11:55:19.963Z,9.29
2018-03-29T11:56:19.983Z,9.21
2018-03-29T11:57:19.999Z,9.29
2018-03-29T11:58:20.021Z,9.47
2018-03-29T12:00:20.058Z,9.64
2018-03-29T12:01:34.787Z,9.66
2018-03-29T12:02:20.103Z,9.89
2018-03-29T12:03:34.774Z,9.86
2018-03-29T12:04:20.136Z,10.01
2018-03-29T12:05:20.154Z,10.02
2018-03-29T12:06:20.231Z,10.17
2018-03-29T12:07:20.198Z,10.14
2018-03-29T12:08:19.962Z,10.25
2018-03-29T12:09:34.900Z,10.22
2018-03-29T12:10:19.992Z,10.02
2018-03-29T12:11:20.271Z,10.14
2018-03-29T12:12:19.770Z,10.17
2018-03-29T12:13:19.789Z,10.3
2018-03-29T12:14:34.985Z,10.18
2018-03-29T12:15:20.346Z,10.36
2018-03-29T12:16:20.107Z,10.2
2018-03-29T12:17:20.386Z,10.26
2018-03-29T12:18:20.419Z,10.17
2018-03-29T12:19:20.165Z,10.12
2018-03-29T12:20:20.443Z,9.9
2018-03-29T12:21:35.123Z,9.58
2018-03-29T12:22:20.487Z,9.6
2018-03-29T12:23:20.504Z,9.46
2018-03-29T12:24:20.265Z,9.36
2018-03-29T12:25:20.348Z,9.4
2018-03-29T12:26:20.304Z,9.32
2018-03-29T12:27:20.322Z,9.24
2018-03-29T12:28:20.597Z,9.17
2018-03-29T12:31:20.912Z,9.14
2018-03-29T12:32:20.422Z,9.18
2018-03-29T12:33:20.701Z,9.14
2018-03-29T12:34:20.456Z,9.05
2018-03-29T12:35:20.737Z,9.1
2018-03-29T12:36:35.412Z,9.02
2018-03-29T12:37:20.254Z,9.02
2018-03-29T12:38:20.792Z,9.04
2018-03-29T12:39:20.809Z,9.04
2018-03-29T12:41:20.853Z,9.01
2018-03-29T12:42:20.609Z,8.96
2018-03-29T12:43:20.886Z,9.01
2018-03-29T12:45:20.930Z,8.81
2018-03-29T12:46:35.674Z,8.83
2018-03-29T12:47:20.963Z,8.84
2018-03-29T12:48:21.032Z,8.83
2018-03-29T12:49:21.006Z,8.87
2018-03-29T12:50:21.192Z,8.89
2018-03-29T12:51:21.039Z,8.89
2018-03-29T12:52:35.716Z,8.91
2018-03-29T12:54:21.108Z,8.8
2018-03-29T12:55:21.118Z,8.79
2018-03-29T12:56:21.128Z,8.84
2018-03-29T12:57:21.149Z,9.11
2018-03-29T12:58:21.168Z,9.18
2018-03-29T12:59:21.186Z,9.35
2018-03-29T13:00:21.262Z,9.53
2018-03-29T13:01:21.235Z,9.65
2018-03-29T13:02:35.901Z,9.74
2018-03-29T13:03:21.264Z,9.86
2018-03-29T13:04:21.285Z,9.99
2018-03-29T13:05:21.300Z,10.05
2018-03-29T13:06:21.325Z,10.07
2018-03-29T13:07:21.340Z,10.15
2018-03-29T13:08:21.360Z,10.22
2018-03-29T13:09:21.120Z,10.26
2018-03-29T13:10:21.396Z,10.29
2018-03-29T13:11:21.156Z,10.34
2018-03-29T13:12:21.176Z,10.25
2018-03-29T13:13:21.195Z,10.34
2018-03-29T13:14:21.473Z,10.47
2018-03-29T13:15:21.493Z,10.55
2018-03-29T13:17:36.298Z,10.66
2018-03-29T13:18:21.567Z,10.51
2018-03-29T13:19:21.578Z,10.29
2018-03-29T13:21:21.615Z,10.11
2018-03-29T13:22:21.633Z,10.12
2018-03-29T13:23:21.653Z,9.94
2018-03-29T13:24:36.329Z,9.99
2018-03-29T13:25:21.755Z,9.94
2018-03-29T13:26:36.368Z,9.83
2018-03-29T13:27:21.212Z,9.71
2018-03-29T13:28:21.231Z,9.61
2018-03-29T13:29:21.254Z,9.74
2018-03-29T13:30:21.788Z,9.58
2018-03-29T13:31:21.558Z,9.54
2018-03-29T13:32:21.828Z,9.48
2018-03-29T13:33:21.853Z,9.46
2018-03-29T13:34:21.607Z,9.42
2018-03-29T13:35:21.893Z,9.47
2018-03-29T13:36:21.921Z,9.56
2018-03-29T13:37:21.665Z,9.58
2018-03-29T13:38:21.945Z,9.65
2018-03-29T13:39:21.967Z,9.65
2018-03-29T13:40:36.641Z,9.69
2018-03-29T13:41:21.743Z,9.72
2018-03-29T13:42:22.032Z,9.69
2018-03-29T13:43:21.818Z,9.76
2018-03-29T13:44:21.801Z,9.68
2018-03-29T13:45:22.085Z,9.66
2018-03-29T13:46:22.105Z,9.74
2018-03-29T13:47:22.123Z,9.76
2018-03-29T13:48:22.136Z,9.89
2018-03-29T13:49:36.824Z,9.96
2018-03-29T13:50:22.184Z,10.05
2018-03-29T13:51:22.194Z,10.23
2018-03-29T13:52:22.213Z,10.18
2018-03-29T13:53:22.236Z,10.2
2018-03-29T13:54:21.996Z,10.25
2018-03-29T13:55:22.277Z,10.32
2018-03-29T13:56:22.291Z,10.3
2018-03-29T13:57:22.068Z,10.26
2018-03-29T13:58:22.071Z,10.29
2018-03-29T13:59:22.564Z,10.33
2018-03-29T14:00:22.382Z,10.15
2018-03-29T14:01:22.129Z,10.15
2018-03-29T14:02:22.413Z,10.17
2018-03-29T14:03:22.176Z,10.05
2018-03-29T14:04:22.450Z,10.23
2018-03-29T14:06:22.487Z,10.14
2018-03-29T14:07:21.986Z,10.15
2018-03-29T14:08:22.266Z,10.04
2018-03-29T14:09:22.545Z,9.99
2018-03-29T14:10:22.305Z,10.07
2018-03-29T14:11:22.683Z,10.08
2018-03-29T14:12:22.608Z,10.04
2018-03-29T14:13:22.624Z,9.94
2018-03-29T14:14:22.642Z,9.93
2018-03-29T14:15:22.420Z,9.96
2018-03-29T14:16:22.421Z,9.96
2018-03-29T14:17:22.706Z,10.05
2018-03-29T14:18:22.460Z,10.01
2018-03-29T14:20:22.762Z,9.97
2018-03-29T14:21:37.436Z,9.91